Fleming, GA (31309)

1:14 PM EST on December 21, 2014 (GMT -0500)
Center of Liberty | Change Station
CLOSE
Current Station
Personal Weather Station
Location: Liberty County, GA
Elevation: 21 ft
Nearby Weather Stations

Elev 21 ft 31.82 °N, 81.50 °W | Updated 9 seconds ago

Overcast
Overcast
50.1 °F
Feels Like 50.1 °F
N
9.0
Wind Variable Wind from SSE
Gusts 9.0 mph

Today
High -- | Low -- °F
--% Chance of Precip.
Yesterday
High -- | Low -- °F
Precip. -- in
7:21 AM 5:25 PM
Waning Crescent, 0% visible
Pressure 30.13 in
Visibility 10.0 miles
Clouds Overcast 500 ft
Dew Point 49 °F
Humidity 97%
Rainfall 0.07 in
Snow Depth Not available.
UV 1 out of 12
Pollen .50 out of 12
Air Quality Not available.
Flu Activity Not available.
SPECI KLHW 211755Z AUTO 02009KT 10SM OVC005 10/09 A3013 RMK AO2 RAE1707DZB1707E1716

More Conditions Fewer Conditions

Pressure 30.13 in
Visibility 10.0 miles
Clouds Overcast 500 ft
Dew Point 49 °F
Humidity 97%
Rainfall 0.07 in
Snow Depth Not available.
UV 1 out of 12
Pollen .50 out of 12
Air Quality Not available.
Flu Activity Not available.
SPECI KLHW 211755Z AUTO 02009KT 10SM OVC005 10/09 A3013 RMK AO2 RAE1707DZB1707E1716

More Conditions Fewer Conditions

10-Day Weather Forecast

Almanac

Astronomy

Dec. 21, 2014 Rise Set
Actual Time
Civil Twilight
Nautical Twilight
Astronomical Twilight
Moon
Length of Visible Light
Length of Day
Tomorrow will be .
, % of the Moon is Illuminated

Today's Extremes

State Highs State Lows

Community

WunderPhotos

Upload Photos

1,779,444 photos uploaded!

WunderBlogs® & News

Nearby

Air Quality

  Air Quality AQ Index Pollutant
Not available.

Snow Depth

Station Depth Elevation

Earthquake Activity

City Distance Mag. Time & Date
Minimum magnitude displayed is 2.5.

Coastal Water Temperatures

Place Temperature

Nearby Weather Stations